Manzanola, Colorado
Current Conditions -  °F | °C
As of 8:53 PM on Thursday 27 Nov 2014 (Local Time) from KLHX Reporting Station
Clear Clear  
Wind Chill: 40°   Ceiling: Unl
Heat Index: 45°   Visibility: 10mi
Dew Point: 25°   Wind: 9mph
Humidity: 46%   Direction: 270°W
Pressure: 30.1"   Gusts: NA
Location:  38.11°N, 103.87°W
Report Text: KLHX 280353Z AUTO 27008KT 10SM CLR 07/M04 A3010 RMK AO2 SLP191 T00721039
Loading
Personal Weather Stations






























Interactive Weather Map New forecast layout! Learn more

10-Day Weather Forecast

Advertisements
Track Severe Weather on mobile